- Siena (Round Rock, TX) - Nearby METAR Reports

Nearby METAR Reports

 

KEDC - Austin Exec, Texas, USA
Distance from station: SSE 10mi, 17km
Updated: Fri, 24-May-2024 11:35pm CDT
Mostly cloudy
Mostly cloudy
 Wind from S
Wind: S 8 mph , 13 km/h
Temperature: 81°F , 27°C
Heat Index: 88°F , 31°C
Dew Point: 77°F , 25°C
Humidity: 89%
Barometer: 29.76 inHg , 1007.8 hPa
Clouds: Mostly cloudy
Visibility: 7 miles , 11 km
Cloud details: Mostly cloudy 3900 ft
2024/05/25 04:35 KEDC 250435Z AUTO 17007KT 7SM BKN039 27/25 A2976 RMK AO2
KGTU - Georgetown, Texas, USA
Distance from station: NNW 11mi, 17km
Updated: Fri, 24-May-2024 10:56pm CDT
Clear
Clear
 Wind from SSE
Wind: SSE 10 mph , 17 km/h
Temperature: 84°F , 29°C
Heat Index: 92°F , 33°C
Dew Point: 75°F , 24°C
Humidity: 74%
Barometer: 29.78 inHg , 1008.5 hPa
Clouds: Clear
Visibility: 10 miles , 16 km
2024/05/25 03:56 KGTU 250356Z 16009KT 10SM CLR 29/24 A2978 RMK AO2 SLP076 T02890239
 
KATT - Austin/Mabry, Texas, USA
Distance from station: SSW 18mi, 30km
Updated: Fri, 24-May-2024 10:51pm CDT
Clear
Clear
 Wind from SSE
Wind: SSE 8 mph , 13 km/h
Temperature: 84°F , 29°C
Heat Index: 92°F , 33°C
Dew Point: 75°F , 24°C
Humidity: 74%
Barometer: 29.77 inHg , 1008.1 hPa
Clouds: Clear
Visibility: 10 miles , 16 km
2024/05/25 03:51 KATT 250351Z AUTO 16007KT 10SM CLR 29/24 A2977 RMK AO2 SLP066 T02890239 $
KRYW - Lago Vista, Texas, USA
Distance from station: W 22mi, 35km
Updated: Fri, 24-May-2024 11:35pm CDT
Clear
Clear
 Wind from SE
Wind: SE 6 mph , 9 km/h
Temperature: 81°F , 27°C
Heat Index: 88°F , 31°C
Dew Point: 77°F , 25°C
Humidity: 89%
Barometer: 29.83 inHg , 1010.2 hPa
Clouds: Clear
Visibility: 10 miles , 16 km
2024/05/25 04:35 KRYW 250435Z AUTO 14005KT 10SM CLR 27/25 A2983 RMK AO2 T02720250
 
KAUS - Austin, Texas, USA
Distance from station: S 25mi, 41km
Updated: Fri, 24-May-2024 10:53pm CDT
Overcast
Overcast
 Wind from SSE
Wind: SSE 10 mph , 17 km/h
Temperature: 82°F , 28°C
Heat Index: 89°F , 32°C
Dew Point: 75°F , 24°C
Humidity: 79%
Barometer: 29.76 inHg , 1007.8 hPa
Clouds: Overcast
Visibility: 10 miles , 16 km
Cloud details: Overcast 4100 ft
2024/05/25 03:53 KAUS 250353Z 15009KT 10SM OVC041 28/24 A2976 RMK AO2 SLP064 T02830244
KILE - Killeen Muni, Texas, USA
Distance from station: N 36mi, 58km
Updated: Wed, 22-May-2024 6:22pm CDT
NOT Current
Heavy thunderstorm, Rain, Mist, Overcast
Heavy thunderstorm, Rain, Mist, Overcast
 Wind from NW
Wind: NW 36 mph , 57 km/h, Gust: 55 mph , 89 km/h
Temperature: 70°F , 21°C
Dew Point: 70°F , 21°C
Humidity: 100%
Barometer: 29.82 inHg , 1009.8 hPa
Summary: Heavy thunderstorm, Rain, Mist
Clouds: Overcast
Visibility: 1 1/2 miles , 2.4 km
Cloud details: Few Clouds 500 ft
Mostly cloudy 1200 ft
Overcast 11000 ft
2024/05/22 23:22 KILE 222322Z AUTO 32031G48KT 1 1/2SM +TSRA BR FEW005 BKN012 OVC110 21/21 A2982 RMK AO2 PK WND 30048/2315 WSHFT 2258 LTG DSNT ALQDS RAB12 P0080
 
KGRK - Gray/Ft Hood, Texas, USA
Distance from station: NNW 38mi, 62km
Updated: Fri, 24-May-2024 10:55pm CDT
Haze, Few clouds
Haze, Few clouds
 Wind from SSE
Wind: SSE 6 mph , 9 km/h
Temperature: 82°F , 28°C
Heat Index: 91°F , 33°C
Dew Point: 79°F , 26°C
Humidity: 89%
Barometer: 29.76 inHg , 1007.8 hPa
Summary: Haze
Clouds: Few Clouds
Visibility: 6 miles , 10 km
Cloud details: Few Clouds 4500 ft
2024/05/25 03:55 KGRK 250355Z 16005KT 6SM HZ FEW045 28/26 A2976 RMK AO2A SLP065 T02790257
KBMQ - Burnet, Texas, USA
Distance from station: WNW 39mi, 64km
Updated: Fri, 24-May-2024 10:53pm CDT
Haze, Overcast
Haze, Overcast
 Wind from calm
Wind: Calm
Temperature: 82°F , 28°C
Heat Index: 90°F , 32°C
Dew Point: 77°F , 25°C
Humidity: 84%
Barometer: 29.80 inHg , 1009.1 hPa
Summary: Haze
Clouds: Overcast
Visibility: 6 miles , 10 km
Cloud details: Overcast 3800 ft
2024/05/25 03:53 KBMQ 250353Z AUTO 00000KT 6SM HZ OVC038 28/25 A2980 RMK AO2 SLP071 T02780250
 
KHLR - Ft Hood/Killeen, Texas, USA
Distance from station: N 41mi, 66km
Updated: Fri, 24-May-2024 11:25pm CDT
Mostly cloudy
Mostly cloudy
 Wind from SSE
Wind: SSE 8 mph , 13 km/h
Temperature: 82°F , 28°C
Heat Index: 90°F , 32°C
Dew Point: 77°F , 25°C
Humidity: 84%
Barometer: 29.79 inHg , 1008.8 hPa
Clouds: Mostly cloudy
Visibility: 9 miles , 14 km
Cloud details: Mostly cloudy 4300 ft
2024/05/25 04:25 KHLR 250425Z AUTO 16007KT 9SM BKN043 28/25 A2979 RMK AO2 SLP076
KTPL - Temple/Miller, Texas, USA
Distance from station: NNE 42mi, 68km
Updated: Fri, 24-May-2024 10:51pm CDT
Clear
Clear
 
Temperature: 82°F , 28°C
Heat Index: 89°F , 32°C
Dew Point: 75°F , 24°C
Humidity: 79%
Barometer: 29.77 inHg , 1008.1 hPa
Clouds: Clear
2024/05/25 03:51 KTPL 250351Z AUTO CLR 28/24 A2977 RMK AO2 SLPNO T02780244 PWINO RVRNO $
 
KT35 - Cameron, Texas, USA
Distance from station: ENE 45mi, 72km
Updated: Fri, 24-May-2024 11:35pm CDT
Partly cloudy
Partly cloudy
 Wind from SE
Wind: SE 7 mph , 11 km/h
Temperature: 81°F , 27°C
Heat Index: 87°F , 31°C
Dew Point: 75°F , 24°C
Humidity: 84%
Barometer: 29.79 inHg , 1008.8 hPa
Clouds: Partly cloudy
Visibility: 10 miles , 16 km
Cloud details: Partly cloudy 4900 ft
2024/05/25 04:35 KT35 250435Z AUTO 14006KT 10SM SCT049 27/24 A2979 RMK AO2 LTG DSNT NE T02730235
KDZB - Horseshoe Bay, Texas, USA
Distance from station: W 45mi, 73km
Updated: Fri, 24-May-2024 11:35pm CDT
Clear
Clear
 Wind from SE
Wind: SE 3 mph , 6 km/h
Temperature: 82°F , 28°C
Heat Index: 89°F , 32°C
Dew Point: 75°F , 24°C
Humidity: 79%
Barometer: 29.80 inHg , 1009.1 hPa
Clouds: Clear
Visibility: 7 miles , 11 km
2024/05/25 04:35 KDZB 250435Z AUTO 14003KT 7SM CLR 28/24 A2980 RMK AO2 T02750238
 
KGYB - Giddings-Lee, Texas, USA
Distance from station: SE 45mi, 73km
Updated: Fri, 24-May-2024 11:35pm CDT
Clear
Clear
 
Temperature: 81°F , 27°C
Heat Index: 87°F , 31°C
Dew Point: 75°F , 24°C
Humidity: 84%
Barometer: 29.82 inHg , 1009.8 hPa
Clouds: Clear
Visibility: 10 miles , 16 km
2024/05/25 04:35 KGYB 250435Z 10SM CLR 27/24 A2982 RMK AO2 T02650235
KHYI - San Marcos, Texas, USA
Distance from station: SSW 48mi, 78km
Updated: Fri, 24-May-2024 10:56pm CDT
Few Clouds
Few Clouds
 Wind from S
Wind: S 13 mph , 20 km/h
Temperature: 84°F , 29°C
Heat Index: 92°F , 33°C
Dew Point: 75°F , 24°C
Humidity: 74%
Barometer: 29.78 inHg , 1008.5 hPa
Clouds: Few Clouds
Visibility: 10 miles , 16 km
Cloud details: Few Clouds 4500 ft
2024/05/25 03:56 KHYI 250356Z AUTO 17011KT 10SM FEW045 29/24 A2978 RMK AO2 SLP074 T02890239
 
KLZZ - Lampasas, Texas, USA
Distance from station: NW 52mi, 84km
Updated: Wed, 03-Apr-2024 9:35am CDT
NOT Current
Clear
Clear
 Wind from WNW
Wind: WNW 7 mph , 11 km/h
Temperature: 61°F , 16°C
Dew Point: 37°F , 3°C
Humidity: 42%
Barometer: 30.03 inHg , 1016.9 hPa
Clouds: Clear
Visibility: 10 miles , 16 km
2024/04/03 14:35 KLZZ 031435Z AUTO 30006KT 270V330 10SM CLR 16/03 A3003 RMK AO2 T01570033
KRWV - Caldwell, Texas, USA
Distance from station: E 54mi, 87km
Updated: Fri, 24-May-2024 11:30pm CDT
Clear
Clear
 Wind from SSE
Wind: SSE 10 mph , 17 km/h
Temperature: 81°F , 27°C
Heat Index: 86°F , 30°C
Dew Point: 73°F , 23°C
Humidity: 79%
Barometer: 29.80 inHg , 1009.1 hPa
Clouds: Clear
Visibility: 10 miles , 16 km
2024/05/25 04:30 KRWV 250430Z AUTO 15009KT 10SM CLR 27/23 A2980 RMK AO2 T02670231
 
K3T5 - La Grange, Texas, USA
Distance from station: SE 59mi, 95km
Updated: Fri, 24-May-2024 11:35pm CDT
Partly cloudy
Partly cloudy
 Wind from SSE
Wind: SSE 9 mph , 15 km/h
Temperature: 81°F , 27°C
Heat Index: 91°F , 33°C
Dew Point: 81°F , 27°C
Humidity: 100%
Barometer: 29.78 inHg , 1008.5 hPa
Clouds: Partly cloudy
Visibility: 10 miles , 16 km
Cloud details: Partly cloudy 1500 ft
2024/05/25 04:35 K3T5 250435Z AUTO 15008KT 10SM SCT015 27/27 A2978 RMK AO2 T02670267 $
KGOP - Gatesville, Texas, USA
Distance from station: N 61mi, 99km
Updated: Fri, 24-May-2024 11:35pm CDT
Overcast
Overcast
 Wind from calm
Wind: Calm
Temperature: 81°F , 27°C
Heat Index: 91°F , 33°C
Dew Point: 81°F , 27°C
Humidity: 100%
Barometer: 29.79 inHg , 1008.8 hPa
Clouds: Overcast
Visibility: 10 miles , 16 km
Cloud details: Mostly cloudy 4300 ft
Mostly cloudy 6000 ft
Overcast 9000 ft
2024/05/25 04:35 KGOP 250435Z AUTO 00000KT 10SM BKN043 BKN060 OVC090 27/27 A2979 RMK AO2
 
KLHB - Hearne Muni, Texas, USA
Distance from station: ENE 63mi, 101km
Updated: Fri, 24-May-2024 11:35pm CDT
Clear
Clear
 Wind from SE
Wind: SE 10 mph , 17 km/h, Gust: 16 mph , 26 km/h
Temperature: 82°F , 28°C
Heat Index: 87°F , 31°C
Dew Point: 73°F , 23°C
Humidity: 74%
Barometer: 29.80 inHg , 1009.1 hPa
Clouds: Clear
Visibility: 10 miles , 16 km
2024/05/25 04:35 KLHB 250435Z AUTO 14009G14KT 10SM CLR 28/23 A2980 RMK AO2 LTG DSNT N T02810233
KBAZ - New Braunfels, Texas, USA
Distance from station: SSW 63mi, 102km
Updated: Fri, 24-May-2024 10:51pm CDT
Overcast
Overcast
 Wind from SSE
Wind: SSE 7 mph , 11 km/h
Temperature: 84°F , 29°C
Heat Index: 94°F , 34°C
Dew Point: 77°F , 25°C
Humidity: 79%
Barometer: 29.75 inHg , 1007.5 hPa
Clouds: Overcast
Visibility: 10 miles , 16 km
Cloud details: Overcast 4600 ft
2024/05/25 03:51 KBAZ 250351Z AUTO 15006KT 10SM OVC046 29/25 A2975 RMK AO2 SLP064 T02940250